Time;durP1;ratioP1;P1;durP2;ratioP2;P2;SDS_P1;SDS_P2;PMS_P1;PMS_P2;Temp;Humidity;BMP_temperature;BMP_pressure;BME280_temperature;BME280_humidity;BME280_pressure;Samples;Min_cycle;Max_cycle;Signal;HPM_P1;HPM_P2
2022/09/11 00:00:15;;;;;;;9.35;7.63;;;13.70;91.30;;;;;;4976668;28;20034;-46
2022/09/11 00:02:40;;;;;;;7.63;6.10;;;13.80;91.30;;;;;;4988300;28;20034;-47
2022/09/11 00:05:06;;;;;;;7.53;6.32;;;13.70;91.20;;;;;;4989647;28;20037;-47
2022/09/11 00:07:32;;;;;;;6.13;5.43;;;13.70;91.30;;;;;;4989313;28;20046;-45
2022/09/11 00:09:58;;;;;;;6.85;6.20;;;13.70;91.30;;;;;;4987638;28;20096;-46
2022/09/11 00:12:29;;;;;;;7.65;6.38;;;13.70;91.20;;;;;;4971565;28;20026;-47
2022/09/11 00:14:54;;;;;;;7.70;5.90;;;13.60;91.30;;;;;;4973787;28;20033;-46
2022/09/11 00:17:20;;;;;;;7.55;6.75;;;13.60;91.30;;;;;;4971247;28;20116;-47
2022/09/11 00:19:46;;;;;;;8.73;7.38;;;13.60;91.40;;;;;;4977032;28;20026;-47
2022/09/11 00:22:12;;;;;;;8.88;7.30;;;13.60;91.40;;;;;;4990068;28;20026;-49
2022/09/11 00:24:37;;;;;;;8.88;6.07;;;13.70;91.40;;;;;;4988955;28;20038;-49
2022/09/11 00:27:08;;;;;;;7.30;6.60;;;13.70;91.30;;;;;;4990227;28;20125;-47
2022/09/11 00:29:34;;;;;;;6.93;6.25;;;13.70;91.40;;;;;;4989247;28;20117;-46
2022/09/11 00:32:00;;;;;;;8.00;6.30;;;13.60;91.30;;;;;;4977804;28;20026;-49
2022/09/11 00:34:27;;;;;;;9.48;7.07;;;13.60;91.20;;;;;;4988699;28;20407;-47
2022/09/11 00:36:53;;;;;;;6.72;5.97;;;13.60;91.30;;;;;;4973631;28;20026;-48
2022/09/11 00:39:20;;;;;;;7.65;6.68;;;13.60;91.30;;;;;;4973633;28;20031;-49
2022/09/11 00:41:48;;;;;;;8.13;7.00;;;13.50;91.30;;;;;;4994764;28;20033;-49
2022/09/11 00:44:16;;;;;;;7.20;5.85;;;13.50;91.30;;;;;;5008294;28;20036;-46
2022/09/11 00:46:45;;;;;;;9.10;7.00;;;13.50;91.20;;;;;;4989830;28;20471;-46
2022/09/11 00:49:31;;;;;;;7.75;6.93;;;13.50;91.20;;;;;;4989520;28;20034;-48
2022/09/11 00:52:03;;;;;;;11.60;8.25;;;13.50;91.20;;;;;;4991686;28;20033;-47
2022/09/11 00:54:35;;;;;;;8.13;7.32;;;13.50;91.30;;;;;;4991231;28;20054;-45
2022/09/11 00:57:05;;;;;;;7.03;6.35;;;13.50;91.40;;;;;;4977995;28;20478;-45
2022/09/11 00:59:32;;;;;;;9.13;6.63;;;13.50;91.40;;;;;;4992848;28;20034;-46
2022/09/11 01:01:58;;;;;;;11.93;7.45;;;13.40;91.30;;;;;;4993335;28;20567;-47
2022/09/11 01:04:24;;;;;;;7.32;6.63;;;13.40;91.20;;;;;;4993584;28;20046;-48
2022/09/11 01:06:55;;;;;;;8.45;6.78;;;13.40;91.20;;;;;;5006652;28;20355;-45
2022/09/11 01:09:22;;;;;;;8.63;7.60;;;13.40;91.40;;;;;;4991983;28;20113;-46
2022/09/11 01:11:57;;;;;;;8.35;7.43;;;13.40;91.50;;;;;;4991884;28;20034;-49
2022/09/11 01:14:29;;;;;;;8.88;7.97;;;13.50;91.60;;;;;;4993000;28;20368;-47
2022/09/11 01:17:20;;;;;;;9.60;7.70;;;13.50;91.60;;;;;;4992141;28;20026;-51
2022/09/11 01:20:15;;;;;;;9.00;8.15;;;13.60;91.70;;;;;;4991168;28;20478;-48
2022/09/11 01:22:46;;;;;;;7.32;6.63;;;13.60;91.70;;;;;;4992073;28;20042;-48
2022/09/11 01:25:54;;;;;;;7.55;6.25;;;13.60;91.70;;;;;;4992595;28;20040;-50
2022/09/11 01:28:32;;;;;;;8.00;5.97;;;13.60;91.70;;;;;;4982255;28;20325;-46
2022/09/11 01:31:05;;;;;;;8.00;7.00;;;13.60;91.70;;;;;;4990394;28;20470;-46
2022/09/11 01:33:46;;;;;;;6.40;5.80;;;13.60;91.50;;;;;;4995083;28;20519;-46
2022/09/11 01:36:46;;;;;;;8.30;6.68;;;13.60;91.60;;;;;;4990658;28;20034;-49
2022/09/11 01:39:16;;;;;;;7.03;6.00;;;13.50;91.60;;;;;;4969556;28;20039;-45
2022/09/11 01:42:01;;;;;;;8.27;7.47;;;13.50;91.60;;;;;;4986736;28;20472;-45
2022/09/11 01:44:38;;;;;;;7.40;6.68;;;13.50;91.60;;;;;;4991131;28;20057;-45
2022/09/11 01:47:09;;;;;;;8.65;7.20;;;13.50;91.70;;;;;;4991710;28;20052;-49
2022/09/11 01:49:40;;;;;;;8.98;6.68;;;13.50;91.70;;;;;;4992330;28;20443;-47
2022/09/11 01:52:11;;;;;;;8.52;7.47;;;13.50;91.60;;;;;;4990722;28;20027;-46
2022/09/11 01:54:44;;;;;;;10.07;6.45;;;13.50;91.70;;;;;;4991234;28;20079;-47
2022/09/11 01:57:20;;;;;;;7.35;6.65;;;13.50;91.60;;;;;;4991612;28;20037;-46
2022/09/11 01:59:53;;;;;;;11.07;8.40;;;13.50;91.80;;;;;;4998597;28;20018;-46
2022/09/11 02:02:25;;;;;;;8.57;7.65;;;13.50;91.80;;;;;;5000737;28;20045;-49
2022/09/11 02:05:15;;;;;;;10.60;9.20;;;13.50;91.90;;;;;;4997368;28;20047;-46
2022/09/11 02:07:50;;;;;;;9.02;8.13;;;13.50;91.90;;;;;;4989658;28;20039;-48
2022/09/11 02:10:24;;;;;;;9.05;8.15;;;13.50;91.90;;;;;;4995569;28;20046;-48
2022/09/11 02:13:03;;;;;;;10.18;9.13;;;13.50;91.80;;;;;;5007819;28;20030;-48
2022/09/11 02:15:38;;;;;;;18.63;9.53;;;13.50;91.70;;;;;;4973908;28;20189;-49
2022/09/11 02:18:18;;;;;;;10.05;7.40;;;13.40;91.70;;;;;;4972100;28;20027;-46
2022/09/11 02:20:46;;;;;;;8.98;8.18;;;13.40;91.70;;;;;;4980466;28;20042;-51
2022/09/11 02:23:13;;;;;;;9.90;8.57;;;13.40;91.60;;;;;;4991742;28;20041;-49
2022/09/11 02:25:39;;;;;;;9.27;8.02;;;13.30;91.60;;;;;;4991547;28;20035;-50
2022/09/11 02:28:05;;;;;;;9.20;7.70;;;13.20;91.60;;;;;;4990684;28;20464;-49
2022/09/11 02:30:31;;;;;;;10.02;8.00;;;13.20;91.50;;;;;;4990077;28;20030;-49
2022/09/11 02:32:57;;;;;;;8.73;7.90;;;13.10;91.60;;;;;;4972049;28;20091;-46
2022/09/11 02:35:31;;;;;;;8.15;7.35;;;13.10;91.50;;;;;;4977576;28;20419;-46
2022/09/11 02:38:07;;;;;;;8.65;7.72;;;13.10;91.50;;;;;;5006306;28;20057;-49
2022/09/11 02:40:45;;;;;;;9.30;8.27;;;13.00;91.40;;;;;;5005627;28;20037;-51
2022/09/11 02:43:30;;;;;;;9.05;7.85;;;12.90;91.40;;;;;;4986083;28;20036;-47
2022/09/11 02:46:33;;;;;;;9.48;8.43;;;12.90;91.40;;;;;;4997470;28;20463;-47
2022/09/11 02:49:18;;;;;;;9.63;8.65;;;12.90;91.40;;;;;;4996627;28;20111;-51
2022/09/11 02:51:46;;;;;;;9.52;8.68;;;12.90;91.50;;;;;;4998703;28;20376;-49
2022/09/11 02:54:23;;;;;;;9.82;8.63;;;12.90;91.60;;;;;;5011033;28;20351;-50
2022/09/11 02:57:00;;;;;;;10.20;9.13;;;12.90;91.60;;;;;;4984411;28;20036;-48
2022/09/11 02:59:37;;;;;;;11.50;8.52;;;12.80;91.50;;;;;;4971759;28;20463;-49
2022/09/11 03:02:11;;;;;;;10.77;8.75;;;12.80;91.60;;;;;;4976439;28;20038;-51
2022/09/11 03:04:37;;;;;;;11.43;9.20;;;12.80;91.60;;;;;;4977936;28;20467;-48
2022/09/11 03:07:03;;;;;;;10.43;9.43;;;12.80;91.60;;;;;;4977590;28;20042;-48
2022/09/11 03:09:32;;;;;;;10.40;9.32;;;12.90;91.80;;;;;;4971291;28;20472;-47
2022/09/11 03:12:00;;;;;;;10.82;9.73;;;12.90;91.90;;;;;;4985079;28;20084;-51
2022/09/11 03:14:25;;;;;;;9.80;8.90;;;12.90;91.90;;;;;;4989917;28;20035;-50
2022/09/11 03:16:51;;;;;;;13.38;9.10;;;13.00;91.90;;;;;;4990342;28;20037;-47
2022/09/11 03:19:16;;;;;;;10.85;9.85;;;13.00;92.00;;;;;;4989892;28;20069;-51
2022/09/11 03:21:42;;;;;;;12.40;11.30;;;13.00;92.00;;;;;;4989148;28;20157;-47
2022/09/11 03:24:11;;;;;;;11.15;10.07;;;13.10;92.00;;;;;;4990728;28;20387;-52
2022/09/11 03:26:37;;;;;;;11.05;10.05;;;13.10;92.00;;;;;;4990033;28;20026;-51
2022/09/11 03:29:03;;;;;;;10.43;9.43;;;13.10;92.00;;;;;;4989517;28;20668;-48
2022/09/11 03:31:31;;;;;;;9.93;9.02;;;13.10;92.00;;;;;;4989771;28;20713;-47
2022/09/11 03:33:59;;;;;;;10.88;9.88;;;13.10;92.10;;;;;;4980194;28;20031;-47
2022/09/11 03:36:25;;;;;;;9.60;8.70;;;13.10;92.00;;;;;;4975520;28;20026;-47
2022/09/11 03:38:51;;;;;;;11.77;9.38;;;13.10;92.10;;;;;;4970877;28;20357;-47
2022/09/11 03:41:17;;;;;;;10.82;9.77;;;13.10;92.10;;;;;;4979196;28;20460;-50
2022/09/11 03:43:43;;;;;;;11.60;9.57;;;13.10;92.00;;;;;;4990099;28;20100;-50
2022/09/11 03:46:09;;;;;;;11.45;9.63;;;13.00;91.90;;;;;;4989318;28;20059;-49
2022/09/11 03:48:35;;;;;;;11.93;10.27;;;13.00;92.00;;;;;;4989841;28;20037;-47
2022/09/11 03:51:03;;;;;;;10.18;9.27;;;13.10;92.10;;;;;;4983638;28;20030;-50
2022/09/11 03:53:31;;;;;;;10.70;9.63;;;13.10;92.20;;;;;;4969624;28;20046;-47
2022/09/11 03:55:59;;;;;;;11.43;10.25;;;13.10;92.20;;;;;;4975900;28;20019;-47
2022/09/11 03:58:25;;;;;;;12.10;10.90;;;13.20;92.20;;;;;;4989274;28;20026;-47
2022/09/11 04:00:51;;;;;;;11.27;10.25;;;13.20;92.20;;;;;;4986239;28;20492;-49
2022/09/11 04:03:16;;;;;;;11.93;10.85;;;13.20;92.10;;;;;;4983534;28;20030;-48
2022/09/11 04:05:56;;;;;;;12.02;10.35;;;13.20;92.00;;;;;;4990342;28;20088;-49
2022/09/11 04:08:22;;;;;;;9.50;8.60;;;13.10;92.00;;;;;;4985600;28;20026;-49
2022/09/11 04:10:47;;;;;;;9.13;8.20;;;13.10;91.90;;;;;;4974984;28;20030;-47
2022/09/11 04:13:13;;;;;;;9.90;8.98;;;13.10;91.90;;;;;;4988922;28;20030;-48
2022/09/11 04:15:38;;;;;;;10.30;8.82;;;13.00;91.70;;;;;;4986269;28;20018;-49
2022/09/11 04:18:08;;;;;;;11.00;9.07;;;12.90;91.60;;;;;;5001144;28;20360;-46
2022/09/11 04:20:36;;;;;;;10.05;9.05;;;12.90;91.70;;;;;;4977770;28;20030;-47
2022/09/11 04:23:02;;;;;;;10.98;8.63;;;12.90;91.80;;;;;;4989157;28;20475;-49
2022/09/11 04:25:28;;;;;;;10.15;9.15;;;12.90;91.80;;;;;;4987931;28;20057;-50
2022/09/11 04:27:55;;;;;;;10.27;9.27;;;12.90;91.80;;;;;;4993170;28;20109;-48
2022/09/11 04:30:21;;;;;;;8.95;8.05;;;12.90;91.80;;;;;;4991354;28;20037;-51
2022/09/11 04:32:49;;;;;;;11.23;10.13;;;12.90;91.80;;;;;;5004575;28;20035;-50
2022/09/11 04:35:15;;;;;;;11.50;9.85;;;12.90;91.80;;;;;;4974985;28;20026;-49
2022/09/11 04:37:43;;;;;;;12.77;9.18;;;12.90;91.80;;;;;;4983238;28;20026;-50
2022/09/11 04:40:09;;;;;;;10.15;9.15;;;12.90;91.80;;;;;;4992725;28;20105;-50
2022/09/11 04:42:37;;;;;;;14.00;9.48;;;12.90;91.90;;;;;;4976744;28;20496;-50
2022/09/11 04:45:03;;;;;;;9.73;8.77;;;12.90;91.80;;;;;;4975962;28;20038;-49
2022/09/11 04:47:29;;;;;;;11.20;10.07;;;12.90;91.90;;;;;;4975991;28;20407;-49
2022/09/11 04:49:57;;;;;;;11.00;9.95;;;12.90;91.90;;;;;;4973518;28;20113;-48
2022/09/11 04:52:23;;;;;;;10.57;9.55;;;12.90;91.90;;;;;;4990761;28;20117;-48
2022/09/11 04:54:49;;;;;;;10.18;9.18;;;12.90;91.80;;;;;;4993046;28;20023;-49
2022/09/11 04:57:15;;;;;;;12.10;10.80;;;12.90;91.70;;;;;;4992632;28;20185;-52
2022/09/11 04:59:40;;;;;;;11.27;9.90;;;12.80;91.70;;;;;;4991847;28;20451;-48
2022/09/11 05:02:06;;;;;;;11.95;10.80;;;12.80;91.70;;;;;;4999303;28;20030;-49
2022/09/11 05:04:31;;;;;;;10.60;9.52;;;12.80;91.70;;;;;;4990500;28;20037;-52
2022/09/11 05:06:57;;;;;;;13.65;12.35;;;12.80;91.80;;;;;;4974901;28;20590;-47
2022/09/11 05:09:25;;;;;;;15.05;13.40;;;12.90;92.00;;;;;;4973227;28;20027;-47
2022/09/11 05:11:53;;;;;;;16.80;13.23;;;12.90;92.20;;;;;;4986242;28;20465;-52
2022/09/11 05:14:19;;;;;;;14.95;13.45;;;13.00;92.30;;;;;;4991593;28;20484;-53
2022/09/11 05:16:44;;;;;;;14.75;12.85;;;13.00;92.30;;;;;;4992138;28;20034;-54
2022/09/11 05:19:10;;;;;;;16.27;14.68;;;13.00;92.30;;;;;;5000301;28;20033;-50
2022/09/11 05:21:36;;;;;;;16.02;14.40;;;13.10;92.40;;;;;;4996954;28;20045;-52
2022/09/11 05:24:04;;;;;;;13.95;12.55;;;13.10;92.40;;;;;;5002696;28;20028;-53
2022/09/11 05:26:35;;;;;;;14.13;12.80;;;13.20;92.40;;;;;;4989619;28;20459;-52
2022/09/11 05:29:07;;;;;;;13.75;12.48;;;13.20;92.40;;;;;;4993739;28;20076;-50
2022/09/11 05:31:33;;;;;;;15.15;13.32;;;13.20;92.40;;;;;;4999158;28;20808;-54
2022/09/11 05:34:00;;;;;;;14.48;13.05;;;13.20;92.40;;;;;;5001740;28;20034;-54
2022/09/11 05:36:27;;;;;;;14.35;12.43;;;13.20;92.40;;;;;;4998878;28;20301;-54
2022/09/11 05:38:53;;;;;;;15.95;13.60;;;13.30;92.40;;;;;;4997484;28;20014;-53
2022/09/11 05:41:19;;;;;;;14.25;12.85;;;13.20;92.40;;;;;;4999789;28;20450;-51
2022/09/11 05:43:45;;;;;;;15.20;13.77;;;13.30;92.50;;;;;;4999419;28;20026;-53
2022/09/11 05:46:16;;;;;;;15.25;13.85;;;13.30;92.50;;;;;;4998985;28;20047;-52
2022/09/11 05:48:42;;;;;;;14.57;12.68;;;13.30;92.50;;;;;;5000258;28;20113;-54
2022/09/11 05:51:11;;;;;;;15.13;13.50;;;13.40;92.50;;;;;;4982806;28;20053;-55
2022/09/11 05:53:40;;;;;;;13.90;12.50;;;13.40;92.50;;;;;;4980039;28;20022;-54
2022/09/11 05:56:07;;;;;;;14.13;12.80;;;13.40;92.50;;;;;;4989678;28;20646;-53
2022/09/11 05:58:33;;;;;;;13.15;11.80;;;13.50;92.60;;;;;;4990870;28;20440;-50
2022/09/11 06:01:26;;;;;;;16.17;12.77;;;13.50;92.50;;;;;;4984904;28;20050;-52
2022/09/11 06:03:53;;;;;;;11.32;10.30;;;13.50;92.50;;;;;;4980148;28;20065;-54
2022/09/11 06:06:21;;;;;;;13.18;11.48;;;13.50;92.50;;;;;;4981803;28;20026;-54
2022/09/11 06:08:48;;;;;;;12.18;11.00;;;13.50;92.50;;;;;;4997639;28;20030;-52
2022/09/11 06:11:16;;;;;;;12.60;11.32;;;13.60;92.60;;;;;;5000163;28;20076;-54
2022/09/11 06:13:46;;;;;;;13.93;12.63;;;13.60;92.50;;;;;;4998716;28;20080;-54
2022/09/11 06:16:24;;;;;;;16.65;11.88;;;13.60;92.60;;;;;;4998360;28;20034;-54
2022/09/11 06:18:51;;;;;;;13.07;11.68;;;13.70;92.60;;;;;;5011429;28;20478;-54
2022/09/11 06:21:19;;;;;;;11.55;10.45;;;13.70;92.70;;;;;;5005052;28;20034;-55
2022/09/11 06:23:48;;;;;;;10.88;9.85;;;13.80;92.60;;;;;;5009719;28;20397;-53
2022/09/11 06:26:15;;;;;;;;;;;13.80;92.70;;;;;;4996318;28;20018;-52
2022/09/11 06:28:46;;;;;;;12.73;11.43;;;13.90;92.70;;;;;;5017680;28;19914;-55
2022/09/11 06:31:15;;;;;;;11.40;10.30;;;13.90;92.70;;;;;;4999897;28;20062;-53
2022/09/11 06:33:41;;;;;;;11.85;10.75;;;13.90;92.80;;;;;;4977594;28;20652;-52
2022/09/11 06:36:10;;;;;;;11.77;10.68;;;14.00;92.80;;;;;;4986266;28;20022;-55
2022/09/11 06:38:37;;;;;;;13.80;12.50;;;14.10;92.90;;;;;;4991490;28;20035;-55
2022/09/11 06:41:05;;;;;;;11.75;10.65;;;14.30;93.00;;;;;;4984682;28;20355;-54
2022/09/11 06:43:31;;;;;;;12.82;11.57;;;14.40;93.10;;;;;;4974397;28;20407;-52
2022/09/11 06:46:24;;;;;;;15.77;11.52;;;14.50;93.10;;;;;;4986239;28;20474;-51
2022/09/11 06:48:50;;;;;;;11.32;9.75;;;14.70;93.20;;;;;;4990711;28;20042;-48
2022/09/11 06:51:18;;;;;;;10.57;9.48;;;14.80;93.30;;;;;;4990745;28;20042;-54
2022/09/11 06:53:48;;;;;;;;;;;14.90;93.40;;;;;;5002747;28;20140;-54
2022/09/11 06:56:16;;;;;;;9.07;7.75;;;15.10;93.50;;;;;;4997419;28;19913;-52
2022/09/11 06:58:44;;;;;;;9.60;8.52;;;15.10;93.50;;;;;;4987009;28;20030;-49
2022/09/11 07:01:12;;;;;;;8.63;7.18;;;15.30;93.50;;;;;;4990909;28;20026;-54
2022/09/11 07:03:43;;;;;;;7.95;7.15;;;15.40;93.50;;;;;;4968472;28;20395;-52
2022/09/11 07:06:10;;;;;;;8.52;6.47;;;15.40;93.60;;;;;;4994545;28;20038;-49
2022/09/11 07:08:38;;;;;;;9.80;5.60;;;15.50;93.50;;;;;;4995521;28;20041;-54
2022/09/11 07:11:05;;;;;;;7.88;6.45;;;15.60;93.40;;;;;;4977797;28;20035;-52
2022/09/11 07:13:31;;;;;;;7.75;6.50;;;15.60;93.30;;;;;;4971183;28;20039;-54
2022/09/11 07:16:06;;;;;;;5.78;4.85;;;15.70;93.10;;;;;;4981617;28;20317;-51
2022/09/11 07:18:37;;;;;;;6.60;5.78;;;15.80;93.10;;;;;;4988841;28;20610;-51
2022/09/11 07:21:07;;;;;;;5.95;5.32;;;16.00;93.10;;;;;;4994244;28;20027;-50
2022/09/11 07:23:36;;;;;;;5.45;4.70;;;16.20;93.20;;;;;;4987474;28;20052;-49
2022/09/11 07:26:07;;;;;;;5.60;4.78;;;16.40;92.90;;;;;;4972299;28;20038;-50
2022/09/11 07:28:33;;;;;;;5.90;4.80;;;16.50;92.70;;;;;;4983395;28;20137;-49
2022/09/11 07:31:17;;;;;;;4.50;4.03;;;16.60;92.30;;;;;;4980504;28;20510;-51
2022/09/11 07:33:45;;;;;;;5.55;4.13;;;16.60;91.80;;;;;;4971291;28;20113;-49
2022/09/11 07:36:27;;;;;;;5.00;4.03;;;16.70;91.30;;;;;;4984044;28;20026;-49
2022/09/11 07:38:56;;;;;;;4.82;3.83;;;16.90;91.20;;;;;;4985049;28;21262;-48
2022/09/11 07:41:23;;;;;;;5.82;2.83;;;17.00;90.40;;;;;;4998414;28;20033;-46
2022/09/11 07:44:01;;;;;;;4.00;2.92;;;17.40;89.80;;;;;;4998855;28;20029;-46
2022/09/11 07:46:30;;;;;;;5.30;3.00;;;17.70;89.10;;;;;;4994597;28;20117;-47
2022/09/11 07:48:56;;;;;;;5.05;2.47;;;18.20;87.90;;;;;;4996733;28;20108;-46
2022/09/11 07:51:25;;;;;;;5.18;2.75;;;18.60;86.00;;;;;;4998181;28;20098;-47
2022/09/11 07:53:54;;;;;;;4.50;2.15;;;19.00;84.90;;;;;;4978685;28;20433;-50
2022/09/11 07:56:23;;;;;;;3.60;2.40;;;19.00;83.00;;;;;;4992011;28;20034;-47
2022/09/11 07:58:55;;;;;;;3.17;1.88;;;19.10;82.80;;;;;;4983691;28;20156;-46
2022/09/11 08:01:24;;;;;;;3.92;1.60;;;19.20;81.80;;;;;;4991070;28;20049;-46
2022/09/11 08:03:58;;;;;;;2.72;1.23;;;19.40;81.20;;;;;;5006730;28;20030;-47
2022/09/11 08:06:30;;;;;;;3.85;1.70;;;19.30;81.10;;;;;;4994265;28;20102;-50
2022/09/11 08:09:00;;;;;;;3.53;1.60;;;19.00;81.20;;;;;;5002839;28;20463;-46
2022/09/11 08:11:28;;;;;;;5.63;1.75;;;18.80;81.60;;;;;;4991795;28;20128;-46
2022/09/11 08:13:54;;;;;;;2.50;1.50;;;18.60;81.90;;;;;;4999563;28;20109;-51
2022/09/11 08:16:23;;;;;;;3.22;1.42;;;18.70;81.50;;;;;;4987893;28;20042;-46
2022/09/11 08:18:50;;;;;;;2.83;1.50;;;18.90;81.70;;;;;;4987194;28;20045;-47
2022/09/11 08:21:19;;;;;;;3.08;1.73;;;19.30;80.10;;;;;;4988718;28;20054;-46
2022/09/11 08:23:45;;;;;;;3.75;1.50;;;19.60;78.40;;;;;;4987160;28;20046;-50
2022/09/11 08:26:23;;;;;;;3.42;1.30;;;20.00;78.30;;;;;;4985012;28;20032;-48
2022/09/11 08:28:51;;;;;;;5.20;1.50;;;20.10;76.70;;;;;;4988532;28;20137;-53
2022/09/11 08:31:21;;;;;;;2.17;1.15;;;20.50;76.60;;;;;;4989698;28;20030;-51
2022/09/11 08:33:50;;;;;;;4.20;1.00;;;20.70;73.50;;;;;;5000720;28;20126;-50
2022/09/11 08:36:15;;;;;;;3.13;1.63;;;21.00;75.40;;;;;;4991412;28;20041;-47
2022/09/11 08:38:42;;;;;;;2.30;1.13;;;20.90;73.20;;;;;;4979967;28;20048;-46
2022/09/11 08:41:39;;;;;;;3.35;1.48;;;20.80;74.30;;;;;;4983091;28;20018;-48
2022/09/11 08:44:23;;;;;;;5.20;1.30;;;21.00;73.90;;;;;;4977120;28;20374;-52
2022/09/11 08:46:58;;;;;;;1.75;1.08;;;21.30;75.20;;;;;;4978723;28;20042;-48
2022/09/11 08:49:33;;;;;;;2.47;1.20;;;21.30;72.60;;;;;;4977999;28;20090;-47
2022/09/11 08:52:01;;;;;;;2.13;1.45;;;21.20;73.10;;;;;;4982764;28;20052;-48
2022/09/11 08:54:36;;;;;;;3.97;1.42;;;21.20;72.80;;;;;;4977244;28;20053;-46
2022/09/11 08:57:29;;;;;;;2.08;1.08;;;21.10;72.60;;;;;;4996573;28;20137;-50
2022/09/11 09:00:34;;;;;;;4.82;1.25;;;21.30;73.40;;;;;;4984116;28;20096;-46
2022/09/11 09:03:37;;;;;;;2.42;1.15;;;21.40;70.30;;;;;;4985187;28;20038;-46
2022/09/11 09:06:36;;;;;;;3.72;1.25;;;20.90;72.90;;;;;;4984850;28;20050;-47
2022/09/11 09:09:33;;;;;;;2.20;1.38;;;20.20;74.40;;;;;;4986270;28;20054;-48
2022/09/11 09:12:26;;;;;;;4.80;1.40;;;19.90;76.10;;;;;;4989934;28;20041;-50
2022/09/11 09:15:23;;;;;;;3.30;1.40;;;19.90;75.30;;;;;;5006723;28;20474;-46
2022/09/11 09:18:12;;;;;;;2.67;1.20;;;20.30;74.80;;;;;;4973428;28;20170;-46
2022/09/11 09:20:45;;;;;;;2.10;0.93;;;20.80;72.30;;;;;;4992121;28;20030;-47
2022/09/11 09:23:30;;;;;;;3.28;1.00;;;21.20;72.70;;;;;;4981111;28;20096;-47
2022/09/11 09:25:57;;;;;;;2.13;1.05;;;21.40;69.20;;;;;;4972234;28;20531;-46
2022/09/11 09:28:45;;;;;;;2.90;1.10;;;21.50;72.10;;;;;;4975480;28;20046;-52
2022/09/11 09:31:19;;;;;;;2.72;1.25;;;21.50;69.10;;;;;;5006366;28;20129;-46
2022/09/11 09:34:03;;;;;;;1.65;1.10;;;21.60;68.90;;;;;;4991085;28;20039;-47
2022/09/11 09:36:33;;;;;;;6.32;1.23;;;21.60;70.20;;;;;;4989536;28;20477;-46
2022/09/11 09:39:01;;;;;;;2.72;0.95;;;21.70;68.10;;;;;;5006528;28;20046;-49
2022/09/11 09:42:07;;;;;;;3.47;1.05;;;21.50;69.20;;;;;;5007929;28;20033;-46
2022/09/11 09:44:50;;;;;;;1.85;0.95;;;21.40;67.30;;;;;;4993312;28;20517;-51
2022/09/11 09:47:17;;;;;;;1.77;0.85;;;21.40;69.30;;;;;;4992018;28;20031;-46
2022/09/11 09:49:45;;;;;;;2.03;1.02;;;21.50;67.40;;;;;;4991096;28;20018;-48
2022/09/11 09:52:26;;;;;;;1.77;0.90;;;21.60;67.10;;;;;;4980162;28;20053;-48
2022/09/11 09:55:00;;;;;;;2.95;1.15;;;21.20;68.30;;;;;;4980494;28;20121;-46
2022/09/11 09:57:38;;;;;;;4.38;1.20;;;21.50;70.80;;;;;;4991687;28;20463;-48
2022/09/11 10:00:10;;;;;;;3.25;1.13;;;21.60;67.60;;;;;;4984604;28;20022;-47
2022/09/11 10:02:53;;;;;;;2.85;1.02;;;21.70;69.60;;;;;;4992110;28;20027;-47
2022/09/11 10:05:39;;;;;;;3.05;1.23;;;21.80;67.70;;;;;;4990492;28;20062;-46
2022/09/11 10:08:25;;;;;;;2.55;0.90;;;21.90;69.60;;;;;;4992113;28;20049;-48
2022/09/11 10:11:07;;;;;;;2.53;1.10;;;21.90;66.90;;;;;;4991266;28;20041;-50
2022/09/11 10:13:41;;;;;;;2.20;0.85;;;21.90;63.90;;;;;;5007508;28;20581;-46
2022/09/11 10:16:37;;;;;;;2.50;0.98;;;22.10;66.60;;;;;;4991921;28;20034;-48
2022/09/11 10:19:04;;;;;;;0.95;0.60;;;22.20;66.30;;;;;;4991204;28;20024;-48
2022/09/11 10:21:36;;;;;;;1.52;0.90;;;22.10;67.90;;;;;;4990364;28;20038;-46
2022/09/11 10:24:07;;;;;;;1.25;0.95;;;22.00;66.80;;;;;;4991144;28;20022;-46
2022/09/11 10:26:54;;;;;;;2.38;1.00;;;22.10;66.10;;;;;;4991011;28;20049;-46
2022/09/11 10:29:28;;;;;;;4.25;1.30;;;22.10;64.40;;;;;;4991646;28;20486;-46
2022/09/11 10:32:01;;;;;;;2.05;1.10;;;21.90;65.10;;;;;;4991590;28;20076;-47
2022/09/11 10:34:36;;;;;;;1.67;0.90;;;21.80;66.00;;;;;;4999604;28;20050;-46
2022/09/11 10:37:14;;;;;;;2.60;1.23;;;21.90;66.10;;;;;;4991527;28;20026;-46
2022/09/11 10:39:42;;;;;;;1.30;0.80;;;21.90;64.50;;;;;;5006140;28;20058;-48
2022/09/11 10:42:26;;;;;;;1.98;0.98;;;22.20;65.90;;;;;;4991461;28;20030;-50
2022/09/11 10:45:04;;;;;;;1.75;0.95;;;21.90;66.60;;;;;;4990354;28;20058;-46
2022/09/11 10:47:31;;;;;;;1.63;0.82;;;21.70;66.10;;;;;;4990582;28;20173;-46
2022/09/11 10:50:16;;;;;;;1.70;0.90;;;21.70;65.00;;;;;;4989093;28;20042;-48
2022/09/11 10:53:02;;;;;;;2.53;0.70;;;21.90;64.30;;;;;;5004964;28;20096;-46
2022/09/11 10:55:40;;;;;;;1.60;0.80;;;21.80;65.90;;;;;;4992295;28;20100;-45
2022/09/11 10:58:17;;;;;;;1.60;0.80;;;21.50;64.90;;;;;;5007744;28;20058;-49
2022/09/11 11:00:50;;;;;;;2.40;1.15;;;21.50;63.90;;;;;;4997066;28;20130;-46
2022/09/11 11:03:28;;;;;;;1.50;0.73;;;21.40;67.40;;;;;;4996356;28;20041;-46
2022/09/11 11:06:12;;;;;;;1.42;0.65;;;21.20;68.00;;;;;;4997894;28;20042;-46
2022/09/11 11:09:11;;;;;;;1.15;0.65;;;21.10;64.50;;;;;;4996432;28;20379;-46
2022/09/11 11:11:52;;;;;;;;;;;21.10;65.10;;;;;;4990387;28;20026;-48
2022/09/11 11:14:30;;;;;;;2.97;1.17;;;21.10;64.60;;;;;;4990930;28;19906;-46
2022/09/11 11:17:39;;;;;;;1.33;0.77;;;21.00;67.20;;;;;;4997297;28;20030;-46
2022/09/11 11:20:25;;;;;;;1.33;0.63;;;21.20;65.20;;;;;;5014772;28;20039;-49
2022/09/11 11:23:27;;;;;;;1.10;0.50;;;21.20;67.00;;;;;;5000015;28;20067;-46
2022/09/11 11:26:15;;;;;;;1.75;1.15;;;21.30;66.30;;;;;;4995011;28;20023;-47
2022/09/11 11:29:13;;;;;;;1.30;0.60;;;21.30;64.20;;;;;;4998139;28;20625;-49
2022/09/11 11:32:18;;;;;;;2.20;0.70;;;21.10;65.40;;;;;;4993624;28;20042;-47
2022/09/11 11:35:22;;;;;;;1.48;0.60;;;21.30;66.40;;;;;;4990986;28;20046;-51
2022/09/11 11:38:01;;;;;;;0.73;0.50;;;21.40;65.70;;;;;;4992886;28;20037;-47
2022/09/11 11:40:45;;;;;;;0.52;0.40;;;21.20;68.60;;;;;;4998592;28;20106;-48
2022/09/11 11:43:17;;;;;;;0.85;0.50;;;21.40;62.20;;;;;;4982306;28;20041;-46
2022/09/11 11:46:14;;;;;;;4.10;0.85;;;21.30;65.10;;;;;;4977769;28;20042;-46
2022/09/11 11:49:00;;;;;;;0.80;0.45;;;21.40;66.50;;;;;;4993980;28;20044;-47
2022/09/11 11:51:29;;;;;;;1.30;0.57;;;21.50;62.00;;;;;;4985465;28;20040;-46
2022/09/11 11:54:16;;;;;;;3.33;0.68;;;21.40;63.20;;;;;;5008878;28;20036;-47
2022/09/11 11:56:52;;;;;;;1.05;0.55;;;21.40;64.10;;;;;;4977066;28;20019;-46
2022/09/11 11:59:30;;;;;;;0.73;0.40;;;21.40;64.60;;;;;;4988360;28;20423;-46
2022/09/11 12:02:12;;;;;;;0.93;0.50;;;21.40;62.60;;;;;;4995677;28;20373;-46
2022/09/11 12:04:47;;;;;;;0.68;0.30;;;21.40;65.40;;;;;;4973083;28;20109;-46
2022/09/11 12:07:21;;;;;;;0.80;0.45;;;21.40;64.90;;;;;;4989987;28;20034;-46
2022/09/11 12:09:49;;;;;;;0.65;0.38;;;21.30;64.70;;;;;;4988376;28;20038;-50
2022/09/11 12:12:16;;;;;;;0.57;0.40;;;21.30;61.50;;;;;;4969513;28;20074;-46
2022/09/11 12:14:49;;;;;;;1.13;0.50;;;21.20;63.30;;;;;;4972405;28;20027;-48
2022/09/11 12:17:30;;;;;;;3.53;0.50;;;21.30;66.40;;;;;;4976227;28;20093;-49
2022/09/11 12:20:11;;;;;;;1.50;0.60;;;21.20;62.60;;;;;;4986615;28;20037;-46
2022/09/11 12:22:47;;;;;;;1.33;0.55;;;21.10;66.20;;;;;;4986467;28;20382;-48
2022/09/11 12:25:18;;;;;;;1.33;0.77;;;21.00;64.30;;;;;;4977940;28;20512;-51
2022/09/11 12:27:53;;;;;;;1.13;0.65;;;21.00;65.20;;;;;;4981128;28;20085;-47
2022/09/11 12:30:22;;;;;;;1.95;0.90;;;20.90;64.90;;;;;;4989273;28;20100;-48
2022/09/11 12:33:00;;;;;;;1.00;0.50;;;20.90;66.20;;;;;;4980032;28;20072;-46
2022/09/11 12:35:41;;;;;;;1.25;0.70;;;20.90;64.50;;;;;;5000580;28;20031;-46
2022/09/11 12:38:12;;;;;;;1.67;0.75;;;20.90;66.20;;;;;;4970069;28;20631;-46
2022/09/11 12:41:06;;;;;;;0.95;0.47;;;20.80;66.20;;;;;;4973956;28;20076;-46
2022/09/11 12:43:50;;;;;;;1.10;0.60;;;20.80;68.20;;;;;;4991565;28;20404;-46
2022/09/11 12:46:22;;;;;;;0.93;0.40;;;20.80;67.40;;;;;;4977711;28;20122;-51
2022/09/11 12:48:56;;;;;;;2.33;0.70;;;20.70;67.10;;;;;;4978226;28;20043;-46
2022/09/11 12:51:37;;;;;;;1.63;0.70;;;20.60;67.80;;;;;;4983020;28;20034;-49
2022/09/11 12:54:39;;;;;;;2.40;0.73;;;20.60;67.70;;;;;;4992502;28;20030;-49
2022/09/11 12:57:19;;;;;;;1.00;0.52;;;20.40;68.30;;;;;;5007061;28;20041;-47
2022/09/11 12:59:52;;;;;;;1.35;0.52;;;20.20;67.80;;;;;;4974092;28;20080;-48
2022/09/11 13:02:27;;;;;;;1.10;0.52;;;20.00;67.20;;;;;;4985470;28;20062;-47
2022/09/11 13:04:54;;;;;;;0.95;0.50;;;19.90;67.50;;;;;;4992446;28;20521;-48
2022/09/11 13:07:40;;;;;;;0.90;0.50;;;19.90;69.00;;;;;;4993282;28;20065;-46
2022/09/11 13:10:20;;;;;;;1.20;0.50;;;19.90;69.10;;;;;;4992561;28;20026;-45
2022/09/11 13:12:52;;;;;;;1.10;0.52;;;19.90;68.70;;;;;;4991130;28;20439;-48
2022/09/11 13:15:35;;;;;;;0.85;0.63;;;19.70;66.90;;;;;;4991115;28;20034;-50